sensor_id;sensor_type;location;lat;lon;timestamp;P1;durP1;ratioP1;P2;durP2;ratioP2
47605;SDS011;55448;51.330;4.946;2022-08-27T00:02:01;7.75;;;2.47;;
47605;SDS011;55448;51.330;4.946;2022-08-27T00:04:27;9.55;;;2.65;;
47605;SDS011;55448;51.330;4.946;2022-08-27T00:06:53;4.72;;;2.25;;
47605;SDS011;55448;51.330;4.946;2022-08-27T00:09:18;12.07;;;2.92;;
47605;SDS011;55448;51.330;4.946;2022-08-27T00:11:44;8.68;;;2.58;;
47605;SDS011;55448;51.330;4.946;2022-08-27T00:14:11;10.55;;;2.70;;
47605;SDS011;55448;51.330;4.946;2022-08-27T00:16:37;6.20;;;2.50;;
47605;SDS011;55448;51.330;4.946;2022-08-27T00:19:03;5.68;;;2.60;;
47605;SDS011;55448;51.330;4.946;2022-08-27T00:21:29;6.05;;;2.70;;
47605;SDS011;55448;51.330;4.946;2022-08-27T00:23:57;4.05;;;2.50;;
47605;SDS011;55448;51.330;4.946;2022-08-27T00:26:23;6.78;;;2.88;;
47605;SDS011;55448;51.330;4.946;2022-08-27T00:28:49;5.97;;;2.45;;
47605;SDS011;55448;51.330;4.946;2022-08-27T00:31:15;6.60;;;2.70;;
47605;SDS011;55448;51.330;4.946;2022-08-27T00:33:41;10.25;;;2.80;;
47605;SDS011;55448;51.330;4.946;2022-08-27T00:36:07;8.00;;;2.92;;
47605;SDS011;55448;51.330;4.946;2022-08-27T00:38:35;8.82;;;3.30;;
47605;SDS011;55448;51.330;4.946;2022-08-27T00:41:02;11.88;;;2.95;;
47605;SDS011;55448;51.330;4.946;2022-08-27T00:43:31;6.25;;;2.55;;
47605;SDS011;55448;51.330;4.946;2022-08-27T00:46:29;10.20;;;3.08;;
47605;SDS011;55448;51.330;4.946;2022-08-27T00:49:07;8.70;;;2.60;;
47605;SDS011;55448;51.330;4.946;2022-08-27T00:51:52;10.57;;;3.83;;
47605;SDS011;55448;51.330;4.946;2022-08-27T00:54:22;9.60;;;3.00;;
47605;SDS011;55448;51.330;4.946;2022-08-27T00:56:50;2.20;;;2.03;;
47605;SDS011;55448;51.330;4.946;2022-08-27T00:59:16;6.20;;;2.50;;
47605;SDS011;55448;51.330;4.946;2022-08-27T01:01:43;5.28;;;2.40;;
47605;SDS011;55448;51.330;4.946;2022-08-27T01:04:29;6.15;;;2.78;;
47605;SDS011;55448;51.330;4.946;2022-08-27T01:06:56;11.77;;;3.40;;
47605;SDS011;55448;51.330;4.946;2022-08-27T01:09:24;6.05;;;2.67;;
47605;SDS011;55448;51.330;4.946;2022-08-27T01:11:51;13.48;;;3.63;;
47605;SDS011;55448;51.330;4.946;2022-08-27T01:14:19;6.90;;;3.00;;
47605;SDS011;55448;51.330;4.946;2022-08-27T01:16:51;7.78;;;2.90;;
47605;SDS011;55448;51.330;4.946;2022-08-27T01:19:27;8.73;;;2.80;;
47605;SDS011;55448;51.330;4.946;2022-08-27T01:24:50;6.90;;;2.70;;
47605;SDS011;55448;51.330;4.946;2022-08-27T01:27:20;8.23;;;2.60;;
47605;SDS011;55448;51.330;4.946;2022-08-27T01:29:49;4.77;;;2.90;;
47605;SDS011;55448;51.330;4.946;2022-08-27T01:32:26;10.57;;;2.80;;
47605;SDS011;55448;51.330;4.946;2022-08-27T01:34:54;5.97;;;2.65;;
47605;SDS011;55448;51.330;4.946;2022-08-27T01:37:21;6.75;;;3.33;;
47605;SDS011;55448;51.330;4.946;2022-08-27T01:39:48;10.30;;;3.72;;
47605;SDS011;55448;51.330;4.946;2022-08-27T01:42:15;8.30;;;3.30;;
47605;SDS011;55448;51.330;4.946;2022-08-27T01:44:49;8.88;;;3.17;;
47605;SDS011;55448;51.330;4.946;2022-08-27T01:47:19;5.97;;;3.30;;
47605;SDS011;55448;51.330;4.946;2022-08-27T01:49:46;8.00;;;3.30;;
47605;SDS011;55448;51.330;4.946;2022-08-27T01:52:12;10.00;;;3.47;;
47605;SDS011;55448;51.330;4.946;2022-08-27T01:54:39;8.07;;;3.75;;
47605;SDS011;55448;51.330;4.946;2022-08-27T01:57:05;8.10;;;3.30;;
47605;SDS011;55448;51.330;4.946;2022-08-27T01:59:31;9.00;;;3.38;;
47605;SDS011;55448;51.330;4.946;2022-08-27T02:01:58;7.97;;;3.38;;
47605;SDS011;55448;51.330;4.946;2022-08-27T02:04:26;6.88;;;3.15;;
47605;SDS011;55448;51.330;4.946;2022-08-27T02:06:52;5.75;;;3.15;;
47605;SDS011;55448;51.330;4.946;2022-08-27T02:09:17;7.28;;;3.25;;
47605;SDS011;55448;51.330;4.946;2022-08-27T02:11:43;7.82;;;3.72;;
47605;SDS011;55448;51.330;4.946;2022-08-27T02:14:09;10.23;;;3.10;;
47605;SDS011;55448;51.330;4.946;2022-08-27T02:16:35;7.80;;;2.83;;
47605;SDS011;55448;51.330;4.946;2022-08-27T02:19:01;6.70;;;2.75;;
47605;SDS011;55448;51.330;4.946;2022-08-27T02:21:28;9.23;;;3.28;;
47605;SDS011;55448;51.330;4.946;2022-08-27T02:23:54;13.13;;;3.92;;
47605;SDS011;55448;51.330;4.946;2022-08-27T02:26:20;9.23;;;3.08;;
47605;SDS011;55448;51.330;4.946;2022-08-27T02:28:46;10.25;;;3.90;;
47605;SDS011;55448;51.330;4.946;2022-08-27T02:31:12;7.85;;;2.83;;
47605;SDS011;55448;51.330;4.946;2022-08-27T02:33:38;10.23;;;3.30;;
47605;SDS011;55448;51.330;4.946;2022-08-27T02:36:04;9.30;;;3.08;;
47605;SDS011;55448;51.330;4.946;2022-08-27T02:38:30;6.95;;;3.00;;
47605;SDS011;55448;51.330;4.946;2022-08-27T02:40:56;9.68;;;2.97;;
47605;SDS011;55448;51.330;4.946;2022-08-27T02:43:22;14.40;;;3.70;;
47605;SDS011;55448;51.330;4.946;2022-08-27T02:45:47;9.63;;;3.53;;
47605;SDS011;55448;51.330;4.946;2022-08-27T02:48:14;12.18;;;3.75;;
47605;SDS011;55448;51.330;4.946;2022-08-27T02:50:40;9.65;;;3.35;;
47605;SDS011;55448;51.330;4.946;2022-08-27T02:53:08;8.88;;;3.17;;
47605;SDS011;55448;51.330;4.946;2022-08-27T02:55:34;7.28;;;2.95;;
47605;SDS011;55448;51.330;4.946;2022-08-27T02:58:00;12.68;;;3.50;;
47605;SDS011;55448;51.330;4.946;2022-08-27T03:00:25;6.47;;;3.47;;
47605;SDS011;55448;51.330;4.946;2022-08-27T03:02:53;19.60;;;3.83;;
47605;SDS011;55448;51.330;4.946;2022-08-27T03:05:19;9.23;;;3.30;;
47605;SDS011;55448;51.330;4.946;2022-08-27T03:07:45;9.05;;;3.45;;
47605;SDS011;55448;51.330;4.946;2022-08-27T03:10:12;8.90;;;3.17;;
47605;SDS011;55448;51.330;4.946;2022-08-27T03:12:39;15.50;;;3.97;;
47605;SDS011;55448;51.330;4.946;2022-08-27T03:15:06;9.27;;;3.38;;
47605;SDS011;55448;51.330;4.946;2022-08-27T03:17:34;6.47;;;3.22;;
47605;SDS011;55448;51.330;4.946;2022-08-27T03:20:19;10.05;;;3.58;;
47605;SDS011;55448;51.330;4.946;2022-08-27T03:22:45;13.95;;;3.45;;
47605;SDS011;55448;51.330;4.946;2022-08-27T03:25:11;9.68;;;3.42;;
47605;SDS011;55448;51.330;4.946;2022-08-27T03:27:36;10.93;;;3.90;;
47605;SDS011;55448;51.330;4.946;2022-08-27T03:30:03;8.75;;;3.22;;
47605;SDS011;55448;51.330;4.946;2022-08-27T03:32:31;14.05;;;3.97;;
47605;SDS011;55448;51.330;4.946;2022-08-27T03:34:57;12.13;;;3.95;;
47605;SDS011;55448;51.330;4.946;2022-08-27T03:37:23;14.75;;;3.97;;
47605;SDS011;55448;51.330;4.946;2022-08-27T03:39:49;9.65;;;3.50;;
47605;SDS011;55448;51.330;4.946;2022-08-27T03:42:14;8.73;;;3.33;;
47605;SDS011;55448;51.330;4.946;2022-08-27T03:44:40;11.88;;;4.03;;
47605;SDS011;55448;51.330;4.946;2022-08-27T03:47:06;10.75;;;3.70;;
47605;SDS011;55448;51.330;4.946;2022-08-27T03:49:32;8.18;;;3.17;;
47605;SDS011;55448;51.330;4.946;2022-08-27T03:51:57;12.15;;;3.75;;
47605;SDS011;55448;51.330;4.946;2022-08-27T03:54:23;10.05;;;3.50;;
47605;SDS011;55448;51.330;4.946;2022-08-27T03:56:49;13.48;;;3.70;;
47605;SDS011;55448;51.330;4.946;2022-08-27T03:59:15;9.07;;;3.85;;
47605;SDS011;55448;51.330;4.946;2022-08-27T04:01:42;9.65;;;3.28;;
47605;SDS011;55448;51.330;4.946;2022-08-27T04:04:09;14.75;;;3.60;;
47605;SDS011;55448;51.330;4.946;2022-08-27T04:06:35;13.90;;;3.92;;
47605;SDS011;55448;51.330;4.946;2022-08-27T04:09:01;10.43;;;3.50;;
47605;SDS011;55448;51.330;4.946;2022-08-27T04:11:28;8.93;;;3.75;;
47605;SDS011;55448;51.330;4.946;2022-08-27T04:13:53;13.40;;;3.65;;
47605;SDS011;55448;51.330;4.946;2022-08-27T04:16:20;10.23;;;3.90;;
47605;SDS011;55448;51.330;4.946;2022-08-27T04:18:46;7.63;;;3.28;;
47605;SDS011;55448;51.330;4.946;2022-08-27T04:21:12;9.75;;;3.83;;
47605;SDS011;55448;51.330;4.946;2022-08-27T04:23:39;12.00;;;3.67;;
47605;SDS011;55448;51.330;4.946;2022-08-27T04:26:07;6.22;;;3.10;;
47605;SDS011;55448;51.330;4.946;2022-08-27T04:28:34;24.73;;;4.22;;
47605;SDS011;55448;51.330;4.946;2022-08-27T04:31:01;10.23;;;3.92;;
47605;SDS011;55448;51.330;4.946;2022-08-27T04:33:27;11.02;;;4.00;;
47605;SDS011;55448;51.330;4.946;2022-08-27T04:35:56;7.35;;;3.30;;
47605;SDS011;55448;51.330;4.946;2022-08-27T04:38:23;18.63;;;4.22;;
47605;SDS011;55448;51.330;4.946;2022-08-27T04:40:49;11.38;;;3.65;;
47605;SDS011;55448;51.330;4.946;2022-08-27T04:43:33;9.60;;;4.10;;
47605;SDS011;55448;51.330;4.946;2022-08-27T04:45:58;13.60;;;4.00;;
47605;SDS011;55448;51.330;4.946;2022-08-27T04:48:24;10.25;;;3.50;;
47605;SDS011;55448;51.330;4.946;2022-08-27T04:50:50;13.18;;;4.45;;
47605;SDS011;55448;51.330;4.946;2022-08-27T04:53:16;12.95;;;4.45;;
47605;SDS011;55448;51.330;4.946;2022-08-27T04:55:42;14.10;;;3.90;;
47605;SDS011;55448;51.330;4.946;2022-08-27T04:58:10;10.38;;;3.63;;
47605;SDS011;55448;51.330;4.946;2022-08-27T05:00:41;8.98;;;3.45;;
47605;SDS011;55448;51.330;4.946;2022-08-27T05:03:07;13.80;;;3.50;;
47605;SDS011;55448;51.330;4.946;2022-08-27T05:05:33;11.88;;;3.85;;
47605;SDS011;55448;51.330;4.946;2022-08-27T05:07:59;10.25;;;4.15;;
47605;SDS011;55448;51.330;4.946;2022-08-27T05:10:25;6.93;;;3.58;;
47605;SDS011;55448;51.330;4.946;2022-08-27T05:12:50;10.10;;;3.83;;
47605;SDS011;55448;51.330;4.946;2022-08-27T05:15:16;10.00;;;3.30;;
47605;SDS011;55448;51.330;4.946;2022-08-27T05:17:42;10.73;;;3.53;;
47605;SDS011;55448;51.330;4.946;2022-08-27T05:20:08;15.00;;;4.30;;
47605;SDS011;55448;51.330;4.946;2022-08-27T05:22:35;11.55;;;3.85;;
47605;SDS011;55448;51.330;4.946;2022-08-27T05:25:01;10.88;;;3.78;;
47605;SDS011;55448;51.330;4.946;2022-08-27T05:27:26;10.30;;;3.30;;
47605;SDS011;55448;51.330;4.946;2022-08-27T05:29:52;9.40;;;3.60;;
47605;SDS011;55448;51.330;4.946;2022-08-27T05:32:18;6.88;;;3.97;;
47605;SDS011;55448;51.330;4.946;2022-08-27T05:34:44;12.95;;;3.95;;
47605;SDS011;55448;51.330;4.946;2022-08-27T05:37:10;8.65;;;3.88;;
47605;SDS011;55448;51.330;4.946;2022-08-27T05:39:35;16.42;;;4.18;;
47605;SDS011;55448;51.330;4.946;2022-08-27T05:42:01;12.13;;;4.05;;
47605;SDS011;55448;51.330;4.946;2022-08-27T05:44:27;11.60;;;3.80;;
47605;SDS011;55448;51.330;4.946;2022-08-27T05:46:53;8.93;;;3.88;;
47605;SDS011;55448;51.330;4.946;2022-08-27T05:49:18;7.32;;;3.72;;
47605;SDS011;55448;51.330;4.946;2022-08-27T05:51:44;7.47;;;3.67;;
47605;SDS011;55448;51.330;4.946;2022-08-27T05:54:10;14.10;;;4.00;;
47605;SDS011;55448;51.330;4.946;2022-08-27T05:56:39;14.73;;;3.88;;
47605;SDS011;55448;51.330;4.946;2022-08-27T05:59:06;9.05;;;3.25;;
47605;SDS011;55448;51.330;4.946;2022-08-27T06:01:52;11.45;;;4.30;;
47605;SDS011;55448;51.330;4.946;2022-08-27T06:04:20;9.93;;;4.25;;
47605;SDS011;55448;51.330;4.946;2022-08-27T06:06:47;9.10;;;4.07;;
47605;SDS011;55448;51.330;4.946;2022-08-27T06:09:14;11.90;;;3.80;;
47605;SDS011;55448;51.330;4.946;2022-08-27T06:11:42;14.95;;;4.25;;
47605;SDS011;55448;51.330;4.946;2022-08-27T06:14:08;9.02;;;3.38;;
47605;SDS011;55448;51.330;4.946;2022-08-27T06:16:35;9.63;;;3.80;;
47605;SDS011;55448;51.330;4.946;2022-08-27T06:19:02;10.73;;;3.60;;
47605;SDS011;55448;51.330;4.946;2022-08-27T06:21:28;12.90;;;4.72;;
47605;SDS011;55448;51.330;4.946;2022-08-27T06:23:54;15.43;;;3.90;;
47605;SDS011;55448;51.330;4.946;2022-08-27T06:26:20;12.68;;;3.92;;
47605;SDS011;55448;51.330;4.946;2022-08-27T06:28:48;13.45;;;4.30;;
47605;SDS011;55448;51.330;4.946;2022-08-27T06:31:18;10.48;;;3.70;;
47605;SDS011;55448;51.330;4.946;2022-08-27T06:33:46;11.13;;;4.05;;
47605;SDS011;55448;51.330;4.946;2022-08-27T06:36:14;15.75;;;3.95;;
47605;SDS011;55448;51.330;4.946;2022-08-27T06:38:41;11.48;;;3.75;;
47605;SDS011;55448;51.330;4.946;2022-08-27T06:41:08;11.95;;;4.30;;
47605;SDS011;55448;51.330;4.946;2022-08-27T06:43:36;8.52;;;4.20;;
47605;SDS011;55448;51.330;4.946;2022-08-27T06:46:04;10.13;;;4.18;;
47605;SDS011;55448;51.330;4.946;2022-08-27T06:48:31;14.88;;;4.20;;
47605;SDS011;55448;51.330;4.946;2022-08-27T06:50:57;11.23;;;4.10;;
47605;SDS011;55448;51.330;4.946;2022-08-27T06:53:23;10.95;;;4.05;;
47605;SDS011;55448;51.330;4.946;2022-08-27T06:55:49;15.90;;;3.95;;
47605;SDS011;55448;51.330;4.946;2022-08-27T06:58:16;10.13;;;3.88;;
47605;SDS011;55448;51.330;4.946;2022-08-27T07:00:42;13.07;;;4.22;;
47605;SDS011;55448;51.330;4.946;2022-08-27T07:03:08;12.43;;;4.35;;
47605;SDS011;55448;51.330;4.946;2022-08-27T07:05:48;11.00;;;3.70;;
47605;SDS011;55448;51.330;4.946;2022-08-27T07:08:14;11.80;;;4.32;;
47605;SDS011;55448;51.330;4.946;2022-08-27T07:10:39;10.88;;;3.67;;
47605;SDS011;55448;51.330;4.946;2022-08-27T07:13:05;10.38;;;3.92;;
47605;SDS011;55448;51.330;4.946;2022-08-27T07:15:31;12.30;;;3.85;;
47605;SDS011;55448;51.330;4.946;2022-08-27T07:17:57;10.05;;;3.45;;
47605;SDS011;55448;51.330;4.946;2022-08-27T07:20:23;19.52;;;3.95;;
47605;SDS011;55448;51.330;4.946;2022-08-27T07:22:49;11.98;;;3.50;;
47605;SDS011;55448;51.330;4.946;2022-08-27T07:25:19;14.23;;;3.45;;
47605;SDS011;55448;51.330;4.946;2022-08-27T07:27:46;10.48;;;3.53;;
47605;SDS011;55448;51.330;4.946;2022-08-27T07:30:13;14.25;;;4.35;;
47605;SDS011;55448;51.330;4.946;2022-08-27T07:32:40;8.63;;;3.67;;
47605;SDS011;55448;51.330;4.946;2022-08-27T07:35:06;9.00;;;3.22;;
47605;SDS011;55448;51.330;4.946;2022-08-27T07:37:34;9.02;;;3.53;;
47605;SDS011;55448;51.330;4.946;2022-08-27T07:40:04;9.80;;;3.13;;
47605;SDS011;55448;51.330;4.946;2022-08-27T07:42:32;17.98;;;3.67;;
47605;SDS011;55448;51.330;4.946;2022-08-27T07:45:16;9.90;;;3.33;;
47605;SDS011;55448;51.330;4.946;2022-08-27T07:47:42;11.68;;;3.97;;
47605;SDS011;55448;51.330;4.946;2022-08-27T07:50:08;9.63;;;3.45;;
47605;SDS011;55448;51.330;4.946;2022-08-27T07:52:33;13.73;;;3.88;;
47605;SDS011;55448;51.330;4.946;2022-08-27T07:54:59;9.40;;;4.18;;
47605;SDS011;55448;51.330;4.946;2022-08-27T07:57:25;6.82;;;3.47;;
47605;SDS011;55448;51.330;4.946;2022-08-27T07:59:51;11.80;;;3.78;;
47605;SDS011;55448;51.330;4.946;2022-08-27T08:02:17;14.23;;;3.80;;
47605;SDS011;55448;51.330;4.946;2022-08-27T08:04:43;10.32;;;3.78;;
47605;SDS011;55448;51.330;4.946;2022-08-27T08:07:09;11.38;;;3.97;;
47605;SDS011;55448;51.330;4.946;2022-08-27T08:09:35;12.40;;;3.55;;
47605;SDS011;55448;51.330;4.946;2022-08-27T08:12:01;13.82;;;3.58;;
47605;SDS011;55448;51.330;4.946;2022-08-27T08:14:28;9.75;;;3.40;;
47605;SDS011;55448;51.330;4.946;2022-08-27T08:16:57;11.25;;;3.58;;
47605;SDS011;55448;51.330;4.946;2022-08-27T08:19:24;8.93;;;3.88;;
47605;SDS011;55448;51.330;4.946;2022-08-27T08:21:50;9.98;;;3.33;;
47605;SDS011;55448;51.330;4.946;2022-08-27T08:24:16;8.35;;;3.42;;
47605;SDS011;55448;51.330;4.946;2022-08-27T08:26:42;8.48;;;3.47;;
47605;SDS011;55448;51.330;4.946;2022-08-27T08:29:08;11.00;;;3.35;;
47605;SDS011;55448;51.330;4.946;2022-08-27T08:31:34;6.55;;;3.28;;
47605;SDS011;55448;51.330;4.946;2022-08-27T08:34:00;11.18;;;3.95;;
47605;SDS011;55448;51.330;4.946;2022-08-27T08:36:25;9.40;;;3.63;;
47605;SDS011;55448;51.330;4.946;2022-08-27T08:38:52;8.88;;;3.72;;
47605;SDS011;55448;51.330;4.946;2022-08-27T08:41:40;10.93;;;3.22;;
47605;SDS011;55448;51.330;4.946;2022-08-27T08:44:07;9.95;;;3.33;;
47605;SDS011;55448;51.330;4.946;2022-08-27T08:47:02;12.27;;;3.75;;
47605;SDS011;55448;51.330;4.946;2022-08-27T08:51:56;9.05;;;3.47;;
47605;SDS011;55448;51.330;4.946;2022-08-27T08:54:32;8.52;;;3.88;;
47605;SDS011;55448;51.330;4.946;2022-08-27T08:57:20;9.63;;;3.38;;
47605;SDS011;55448;51.330;4.946;2022-08-27T08:59:50;11.13;;;3.80;;
47605;SDS011;55448;51.330;4.946;2022-08-27T09:02:30;7.78;;;2.92;;
47605;SDS011;55448;51.330;4.946;2022-08-27T09:04:56;7.28;;;3.38;;
47605;SDS011;55448;51.330;4.946;2022-08-27T09:07:31;9.77;;;3.85;;
47605;SDS011;55448;51.330;4.946;2022-08-27T09:10:25;5.63;;;3.65;;
47605;SDS011;55448;51.330;4.946;2022-08-27T09:13:18;10.55;;;3.78;;
47605;SDS011;55448;51.330;4.946;2022-08-27T09:16:00;7.10;;;3.08;;
47605;SDS011;55448;51.330;4.946;2022-08-27T09:18:27;7.50;;;3.08;;
47605;SDS011;55448;51.330;4.946;2022-08-27T09:20:56;7.88;;;3.17;;
47605;SDS011;55448;51.330;4.946;2022-08-27T09:23:54;7.28;;;3.42;;
47605;SDS011;55448;51.330;4.946;2022-08-27T09:26:29;8.77;;;3.15;;
47605;SDS011;55448;51.330;4.946;2022-08-27T09:28:57;8.00;;;3.53;;
47605;SDS011;55448;51.330;4.946;2022-08-27T09:31:56;8.07;;;3.17;;
47605;SDS011;55448;51.330;4.946;2022-08-27T09:34:35;6.80;;;2.85;;
47605;SDS011;55448;51.330;4.946;2022-08-27T09:37:13;8.57;;;3.55;;
47605;SDS011;55448;51.330;4.946;2022-08-27T09:42:23;8.50;;;3.63;;
47605;SDS011;55448;51.330;4.946;2022-08-27T09:44:55;11.70;;;3.55;;
47605;SDS011;55448;51.330;4.946;2022-08-27T09:47:22;11.55;;;3.17;;
47605;SDS011;55448;51.330;4.946;2022-08-27T09:49:58;12.10;;;3.70;;
47605;SDS011;55448;51.330;4.946;2022-08-27T09:52:44;9.15;;;3.88;;
47605;SDS011;55448;51.330;4.946;2022-08-27T09:58:18;9.80;;;3.30;;
47605;SDS011;55448;51.330;4.946;2022-08-27T10:00:46;7.70;;;3.67;;
47605;SDS011;55448;51.330;4.946;2022-08-27T10:03:13;8.52;;;3.38;;
47605;SDS011;55448;51.330;4.946;2022-08-27T10:05:49;6.13;;;3.35;;
47605;SDS011;55448;51.330;4.946;2022-08-27T10:08:21;8.57;;;4.00;;
47605;SDS011;55448;51.330;4.946;2022-08-27T10:14:01;11.57;;;3.38;;
47605;SDS011;55448;51.330;4.946;2022-08-27T10:19:10;9.05;;;3.35;;
47605;SDS011;55448;51.330;4.946;2022-08-27T10:27:19;9.52;;;4.00;;
47605;SDS011;55448;51.330;4.946;2022-08-27T10:40:53;9.90;;;3.92;;
47605;SDS011;55448;51.330;4.946;2022-08-27T10:54:54;6.65;;;3.88;;
47605;SDS011;55448;51.330;4.946;2022-08-27T10:59:56;9.35;;;4.35;;
47605;SDS011;55448;51.330;4.946;2022-08-27T11:02:44;10.35;;;4.13;;
47605;SDS011;55448;51.330;4.946;2022-08-27T11:05:22;12.65;;;4.20;;
47605;SDS011;55448;51.330;4.946;2022-08-27T11:10:49;8.25;;;3.90;;
47605;SDS011;55448;51.330;4.946;2022-08-27T11:13:29;10.27;;;4.18;;
47605;SDS011;55448;51.330;4.946;2022-08-27T11:16:00;8.63;;;4.00;;
47605;SDS011;55448;51.330;4.946;2022-08-27T11:18:34;8.60;;;4.18;;
47605;SDS011;55448;51.330;4.946;2022-08-27T11:21:23;8.27;;;3.60;;
47605;SDS011;55448;51.330;4.946;2022-08-27T11:23:59;11.88;;;4.63;;
47605;SDS011;55448;51.330;4.946;2022-08-27T11:26:35;12.02;;;4.10;;
47605;SDS011;55448;51.330;4.946;2022-08-27T11:29:14;9.50;;;4.18;;
47605;SDS011;55448;51.330;4.946;2022-08-27T11:34:35;11.80;;;4.55;;
47605;SDS011;55448;51.330;4.946;2022-08-27T11:42:49;8.73;;;3.90;;
47605;SDS011;55448;51.330;4.946;2022-08-27T11:47:53;10.35;;;3.92;;
47605;SDS011;55448;51.330;4.946;2022-08-27T11:50:22;7.30;;;4.47;;
47605;SDS011;55448;51.330;4.946;2022-08-27T11:53:04;6.78;;;3.80;;
47605;SDS011;55448;51.330;4.946;2022-08-27T11:55:34;10.45;;;3.72;;
47605;SDS011;55448;51.330;4.946;2022-08-27T12:00:44;8.85;;;3.75;;
47605;SDS011;55448;51.330;4.946;2022-08-27T12:08:27;7.25;;;3.08;;
47605;SDS011;55448;51.330;4.946;2022-08-27T12:19:05;7.00;;;3.22;;
47605;SDS011;55448;51.330;4.946;2022-08-27T12:21:56;9.35;;;3.47;;
47605;SDS011;55448;51.330;4.946;2022-08-27T12:35:08;8.23;;;2.70;;
47605;SDS011;55448;51.330;4.946;2022-08-27T12:37:41;6.50;;;3.03;;
47605;SDS011;55448;51.330;4.946;2022-08-27T12:40:12;8.10;;;2.78;;
47605;SDS011;55448;51.330;4.946;2022-08-27T12:42:49;6.20;;;2.72;;
47605;SDS011;55448;51.330;4.946;2022-08-27T12:45:18;7.72;;;2.55;;
47605;SDS011;55448;51.330;4.946;2022-08-27T12:47:46;7.70;;;2.95;;
47605;SDS011;55448;51.330;4.946;2022-08-27T12:50:12;6.10;;;2.25;;
47605;SDS011;55448;51.330;4.946;2022-08-27T13:01:04;5.82;;;2.88;;
47605;SDS011;55448;51.330;4.946;2022-08-27T13:03:42;6.32;;;2.90;;
47605;SDS011;55448;51.330;4.946;2022-08-27T13:06:25;10.30;;;3.38;;
47605;SDS011;55448;51.330;4.946;2022-08-27T13:08:56;9.93;;;2.90;;
47605;SDS011;55448;51.330;4.946;2022-08-27T13:11:29;7.95;;;2.90;;
47605;SDS011;55448;51.330;4.946;2022-08-27T13:14:07;6.10;;;2.60;;
47605;SDS011;55448;51.330;4.946;2022-08-27T13:16:36;6.18;;;2.30;;
47605;SDS011;55448;51.330;4.946;2022-08-27T13:19:03;4.45;;;2.30;;
47605;SDS011;55448;51.330;4.946;2022-08-27T13:21:31;5.18;;;2.28;;
47605;SDS011;55448;51.330;4.946;2022-08-27T13:23:58;4.85;;;2.60;;
47605;SDS011;55448;51.330;4.946;2022-08-27T13:26:28;7.75;;;2.50;;
47605;SDS011;55448;51.330;4.946;2022-08-27T13:29:02;9.48;;;2.08;;
47605;SDS011;55448;51.330;4.946;2022-08-27T13:31:32;5.90;;;2.30;;
47605;SDS011;55448;51.330;4.946;2022-08-27T13:33:59;4.78;;;2.53;;
47605;SDS011;55448;51.330;4.946;2022-08-27T13:36:32;6.18;;;2.10;;
47605;SDS011;55448;51.330;4.946;2022-08-27T13:39:01;7.93;;;2.58;;
47605;SDS011;55448;51.330;4.946;2022-08-27T13:41:30;3.25;;;1.73;;
47605;SDS011;55448;51.330;4.946;2022-08-27T13:44:05;8.13;;;2.10;;
47605;SDS011;55448;51.330;4.946;2022-08-27T13:46:53;4.20;;;2.03;;
47605;SDS011;55448;51.330;4.946;2022-08-27T13:49:25;5.68;;;2.00;;
47605;SDS011;55448;51.330;4.946;2022-08-27T13:52:01;7.22;;;2.40;;
47605;SDS011;55448;51.330;4.946;2022-08-27T13:54:37;5.97;;;2.40;;
47605;SDS011;55448;51.330;4.946;2022-08-27T13:57:04;6.10;;;2.40;;
47605;SDS011;55448;51.330;4.946;2022-08-27T13:59:38;10.27;;;2.70;;
47605;SDS011;55448;51.330;4.946;2022-08-27T14:04:36;5.57;;;2.20;;
47605;SDS011;55448;51.330;4.946;2022-08-27T14:07:14;7.00;;;2.08;;
47605;SDS011;55448;51.330;4.946;2022-08-27T14:09:51;3.88;;;1.92;;
47605;SDS011;55448;51.330;4.946;2022-08-27T14:12:37;4.75;;;2.22;;
47605;SDS011;55448;51.330;4.946;2022-08-27T14:17:55;4.63;;;2.25;;
47605;SDS011;55448;51.330;4.946;2022-08-27T14:20:21;5.15;;;1.90;;
47605;SDS011;55448;51.330;4.946;2022-08-27T14:22:47;6.65;;;2.30;;
47605;SDS011;55448;51.330;4.946;2022-08-27T14:25:14;8.20;;;2.10;;
47605;SDS011;55448;51.330;4.946;2022-08-27T14:27:42;3.28;;;1.90;;
47605;SDS011;55448;51.330;4.946;2022-08-27T14:30:12;4.82;;;1.92;;
47605;SDS011;55448;51.330;4.946;2022-08-27T14:32:40;4.78;;;1.77;;
47605;SDS011;55448;51.330;4.946;2022-08-27T14:35:06;5.97;;;2.10;;
47605;SDS011;55448;51.330;4.946;2022-08-27T14:37:34;8.30;;;1.90;;
47605;SDS011;55448;51.330;4.946;2022-08-27T14:40:02;6.38;;;2.00;;
47605;SDS011;55448;51.330;4.946;2022-08-27T14:42:28;8.55;;;2.05;;
47605;SDS011;55448;51.330;4.946;2022-08-27T14:44:54;5.07;;;2.72;;
47605;SDS011;55448;51.330;4.946;2022-08-27T14:47:19;3.97;;;1.80;;
47605;SDS011;55448;51.330;4.946;2022-08-27T14:49:45;4.72;;;2.10;;
47605;SDS011;55448;51.330;4.946;2022-08-27T14:52:12;4.97;;;1.95;;
47605;SDS011;55448;51.330;4.946;2022-08-27T14:54:39;4.78;;;1.90;;
47605;SDS011;55448;51.330;4.946;2022-08-27T14:57:06;9.05;;;2.00;;
47605;SDS011;55448;51.330;4.946;2022-08-27T14:59:33;6.80;;;1.85;;
47605;SDS011;55448;51.330;4.946;2022-08-27T15:01:59;4.97;;;2.28;;
47605;SDS011;55448;51.330;4.946;2022-08-27T15:04:28;8.50;;;2.28;;
47605;SDS011;55448;51.330;4.946;2022-08-27T15:06:54;7.45;;;2.05;;
47605;SDS011;55448;51.330;4.946;2022-08-27T15:09:20;5.03;;;2.00;;
47605;SDS011;55448;51.330;4.946;2022-08-27T15:11:46;4.05;;;1.58;;
47605;SDS011;55448;51.330;4.946;2022-08-27T15:14:29;5.72;;;2.03;;
47605;SDS011;55448;51.330;4.946;2022-08-27T15:16:56;6.60;;;2.00;;
47605;SDS011;55448;51.330;4.946;2022-08-27T15:19:23;12.02;;;2.10;;
47605;SDS011;55448;51.330;4.946;2022-08-27T15:21:49;4.93;;;2.17;;
47605;SDS011;55448;51.330;4.946;2022-08-27T15:24:18;5.45;;;2.35;;
47605;SDS011;55448;51.330;4.946;2022-08-27T15:26:49;4.57;;;2.30;;
47605;SDS011;55448;51.330;4.946;2022-08-27T15:29:22;6.93;;;2.35;;
47605;SDS011;55448;51.330;4.946;2022-08-27T15:31:48;6.88;;;2.15;;
47605;SDS011;55448;51.330;4.946;2022-08-27T15:34:14;5.57;;;1.90;;
47605;SDS011;55448;51.330;4.946;2022-08-27T15:36:40;6.55;;;1.88;;
47605;SDS011;55448;51.330;4.946;2022-08-27T15:39:06;7.22;;;2.30;;
47605;SDS011;55448;51.330;4.946;2022-08-27T15:41:33;6.72;;;2.20;;
47605;SDS011;55448;51.330;4.946;2022-08-27T15:44:00;5.22;;;2.20;;
47605;SDS011;55448;51.330;4.946;2022-08-27T15:46:26;7.70;;;2.40;;
47605;SDS011;55448;51.330;4.946;2022-08-27T15:48:52;4.05;;;1.80;;
47605;SDS011;55448;51.330;4.946;2022-08-27T15:51:21;9.95;;;2.25;;
47605;SDS011;55448;51.330;4.946;2022-08-27T15:53:52;5.32;;;1.90;;
47605;SDS011;55448;51.330;4.946;2022-08-27T15:56:18;5.40;;;1.98;;
47605;SDS011;55448;51.330;4.946;2022-08-27T15:58:44;6.82;;;2.05;;
47605;SDS011;55448;51.330;4.946;2022-08-27T16:01:11;4.35;;;1.90;;
47605;SDS011;55448;51.330;4.946;2022-08-27T16:03:39;4.28;;;1.90;;
47605;SDS011;55448;51.330;4.946;2022-08-27T16:06:08;6.93;;;2.00;;
47605;SDS011;55448;51.330;4.946;2022-08-27T16:08:34;9.73;;;2.42;;
47605;SDS011;55448;51.330;4.946;2022-08-27T16:11:00;7.38;;;2.30;;
47605;SDS011;55448;51.330;4.946;2022-08-27T16:13:26;5.07;;;1.85;;
47605;SDS011;55448;51.330;4.946;2022-08-27T16:15:52;8.55;;;2.00;;
47605;SDS011;55448;51.330;4.946;2022-08-27T16:18:28;8.55;;;1.77;;
47605;SDS011;55448;51.330;4.946;2022-08-27T16:20:56;4.43;;;2.03;;
47605;SDS011;55448;51.330;4.946;2022-08-27T16:23:24;8.90;;;2.03;;
47605;SDS011;55448;51.330;4.946;2022-08-27T16:25:51;4.95;;;2.22;;
47605;SDS011;55448;51.330;4.946;2022-08-27T16:28:17;2.70;;;1.80;;
47605;SDS011;55448;51.330;4.946;2022-08-27T16:30:43;8.68;;;2.10;;
47605;SDS011;55448;51.330;4.946;2022-08-27T16:33:09;5.20;;;2.28;;
47605;SDS011;55448;51.330;4.946;2022-08-27T16:35:36;5.95;;;2.50;;
47605;SDS011;55448;51.330;4.946;2022-08-27T16:38:02;6.70;;;2.00;;